Time;durP1;ratioP1;P1;durP2;ratioP2;P2;SDS_P1;SDS_P2;PMS_P1;PMS_P2;Temp;Humidity;BMP_temperature;BMP_pressure;BME280_temperature;BME280_humidity;BME280_pressure;Samples;Min_cycle;Max_cycle;Signal;HPM_P1;HPM_P2
2022/08/20 00:02:04;;;;;;;;;;;;;;;12.98;100.00;99027.13;5073929;28;19959;-77
2022/08/20 00:04:31;;;;;;;;;;;;;;;12.69;100.00;99030.66;5072692;28;19939;-77
2022/08/20 00:06:58;;;;;;;;;;;;;;;12.32;100.00;99033.97;5073815;28;19925;-77
2022/08/20 00:09:25;;;;;;;;;;;;;;;12.32;100.00;99025.56;5073888;28;20306;-78
2022/08/20 00:11:52;;;;;;;;;;;;;;;12.06;100.00;99023.75;5073588;28;20027;-77
2022/08/20 00:14:19;;;;;;;;;;;;;;;12.46;100.00;99032.84;5072383;28;19924;-77
2022/08/20 00:16:46;;;;;;;;;;;;;;;12.65;100.00;99029.16;5072399;28;20295;-77
2022/08/20 00:19:14;;;;;;;;;;;;;;;12.80;100.00;99029.59;5072203;28;19924;-78
2022/08/20 00:21:41;;;;;;;;;;;;;;;12.67;100.00;99016.28;5073548;28;19924;-78
2022/08/20 00:24:08;;;;;;;;;;;;;;;12.82;100.00;99015.91;5073595;28;19925;-78
2022/08/20 00:26:35;;;;;;;;;;;;;;;12.75;100.00;99014.88;5073426;28;19978;-77
2022/08/20 00:29:02;;;;;;;;;;;;;;;12.29;100.00;99006.03;5073220;28;20284;-78
2022/08/20 00:31:30;;;;;;;;;;;;;;;12.15;100.00;99006.34;5072118;28;19963;-78
2022/08/20 00:33:58;;;;;;;;;;;;;;;12.09;100.00;99008.09;5055231;28;19925;-78
2022/08/20 00:36:25;;;;;;;;;;;;;;;12.63;100.00;99012.00;5073666;28;19931;-78
2022/08/20 00:38:52;;;;;;;;;;;;;;;12.81;100.00;99008.75;5054999;28;19928;-77
2022/08/20 00:41:22;;;;;;;;;;;;;;;12.45;100.00;99004.03;5073005;28;19968;-78
2022/08/20 00:44:02;;;;;;;;;;;;;;;12.61;100.00;99004.03;5073159;28;19925;-78
2022/08/20 00:46:30;;;;;;;;;;;;;;;12.67;100.00;98999.47;5072003;28;20434;-77
2022/08/20 00:48:58;;;;;;;;;;;;;;;12.69;100.00;98997.00;5073123;28;19931;-78
2022/08/20 00:51:29;;;;;;;;;;;;;;;12.83;100.00;98989.47;5073184;28;20330;-78
2022/08/20 00:54:00;;;;;;;;;;;;;;;12.58;100.00;98996.50;5072914;28;19924;-78
2022/08/20 00:56:29;;;;;;;;;;;;;;;12.78;100.00;98977.53;5038436;28;19931;-78
2022/08/20 00:58:56;;;;;;;;;;;;;;;12.77;100.00;98980.78;5073144;28;20276;-78
2022/08/20 01:01:23;;;;;;;;;;;;;;;12.81;100.00;98975.09;5071888;28;20398;-78
2022/08/20 01:03:54;;;;;;;;;;;;;;;12.42;100.00;98970.47;5072925;28;19931;-78
2022/08/20 01:06:22;;;;;;;;;;;;;;;12.47;100.00;98967.94;5073028;28;19951;-78
2022/08/20 01:08:49;;;;;;;;;;;;;;;12.47;100.00;98969.97;5071531;28;19986;-78
2022/08/20 01:11:20;;;;;;;;;;;;;;;12.47;100.00;98961.56;5071375;28;19931;-78
2022/08/20 01:13:47;;;;;;;;;;;;;;;12.72;100.00;98965.28;5054702;28;20344;-78
2022/08/20 01:16:21;;;;;;;;;;;;;;;12.38;100.00;98970.59;5072992;28;19925;-77
2022/08/20 01:18:50;;;;;;;;;;;;;;;12.56;100.00;98959.72;5055489;28;20303;-78
2022/08/20 01:21:27;;;;;;;;;;;;;;;12.80;100.00;98962.31;5072652;28;19985;-78
2022/08/20 01:24:12;;;;;;;;;;;;;;;12.70;100.00;98962.16;5071447;28;19932;-78
2022/08/20 01:26:41;;;;;;;;;;;;;;;12.96;100.00;98974.28;5072668;28;20375;-78
2022/08/20 01:29:13;;;;;;;;;;;;;;;12.97;100.00;98977.88;5054944;28;19932;-78
2022/08/20 01:31:41;;;;;;;;;;;;;;;12.48;100.00;98968.75;5072724;28;19931;-78
2022/08/20 01:34:10;;;;;;;;;;;;;;;12.52;100.00;98975.84;5071301;28;20368;-78
2022/08/20 01:36:43;;;;;;;;;;;;;;;12.63;100.00;98981.94;5072694;28;19924;-78
2022/08/20 01:39:13;;;;;;;;;;;;;;;12.69;100.00;98974.59;5071295;28;19925;-78
2022/08/20 01:41:50;;;;;;;;;;;;;;;12.63;100.00;98970.72;5072478;28;19931;-78
2022/08/20 01:44:19;;;;;;;;;;;;;;;12.72;100.00;98979.31;5071621;28;19925;-78
2022/08/20 01:46:47;;;;;;;;;;;;;;;12.50;100.00;98972.69;5076725;28;19925;-78
2022/08/20 01:49:22;;;;;;;;;;;;;;;12.69;100.00;98968.97;5058738;28;20025;-78
2022/08/20 01:51:50;;;;;;;;;;;;;;;12.87;100.00;98973.34;5076828;28;20279;-78
2022/08/20 01:54:17;;;;;;;;;;;;;;;12.52;100.00;98970.25;5074868;28;19925;-78
2022/08/20 01:56:53;;;;;;;;;;;;;;;12.68;100.00;98977.81;5058535;28;19924;-78
2022/08/20 01:59:21;;;;;;;;;;;;;;;12.41;100.00;98966.91;5075217;28;19987;-78
2022/08/20 02:01:48;;;;;;;;;;;;;;;12.65;100.00;98968.28;5074984;28;20371;-78
2022/08/20 02:04:17;;;;;;;;;;;;;;;12.84;100.00;98963.00;5076291;28;20401;-78
2022/08/20 02:06:46;;;;;;;;;;;;;;;12.57;100.00;98966.88;5076092;28;19929;-78
2022/08/20 02:09:14;;;;;;;;;;;;;;;12.66;100.00;98969.09;5075953;28;19975;-77
2022/08/20 02:11:41;;;;;;;;;;;;;;;12.87;100.00;98967.72;5076078;28;20359;-78
2022/08/20 02:14:09;;;;;;;;;;;;;;;13.04;100.00;98961.66;5076415;28;19928;-78
2022/08/20 02:16:38;;;;;;;;;;;;;;;13.17;100.00;98958.91;5075879;28;19924;-78
2022/08/20 02:19:10;;;;;;;;;;;;;;;13.34;100.00;98958.44;5076038;28;20024;-78
2022/08/20 02:21:43;;;;;;;;;;;;;;;13.15;100.00;98967.78;5075956;28;19924;-78
2022/08/20 02:24:10;;;;;;;;;;;;;;;12.48;100.00;98963.91;5075550;28;20302;-78
2022/08/20 02:26:38;;;;;;;;;;;;;;;12.03;100.00;98957.41;5075835;28;19931;-78
2022/08/20 02:29:06;;;;;;;;;;;;;;;12.41;100.00;98966.09;5074555;28;19924;-78
2022/08/20 02:31:35;;;;;;;;;;;;;;;12.86;100.00;98957.75;5075757;28;19928;-78
2022/08/20 02:34:03;;;;;;;;;;;;;;;12.92;100.00;98959.56;5075534;28;19924;-78
2022/08/20 02:36:30;;;;;;;;;;;;;;;13.11;100.00;98957.88;5075648;28;19925;-78
2022/08/20 02:38:57;;;;;;;;;;;;;;;12.28;100.00;98954.03;5075086;28;19924;-78
2022/08/20 02:41:25;;;;;;;;;;;;;;;12.81;100.00;98947.06;5074387;28;19974;-78
2022/08/20 02:43:52;;;;;;;;;;;;;;;12.94;100.00;98959.13;5074424;28;20364;-78
2022/08/20 02:46:20;;;;;;;;;;;;;;;13.20;100.00;98952.41;5075791;28;19925;-78
2022/08/20 02:48:47;;;;;;;;;;;;;;;13.18;100.00;98950.06;5075336;28;19930;-78
2022/08/20 02:51:15;;;;;;;;;;;;;;;13.46;100.00;98949.25;5075330;28;19970;-78
2022/08/20 02:53:42;;;;;;;;;;;;;;;12.75;100.00;98944.78;5075009;28;20307;-78
2022/08/20 02:56:09;;;;;;;;;;;;;;;13.16;100.00;98946.13;5040116;28;20019;-78
2022/08/20 02:58:38;;;;;;;;;;;;;;;13.41;100.00;98940.56;5075315;28;19924;-78
2022/08/20 03:01:08;;;;;;;;;;;;;;;13.67;100.00;98939.41;5075338;28;19924;-78
2022/08/20 03:03:35;;;;;;;;;;;;;;;13.82;100.00;98932.91;5074006;28;19924;-78
2022/08/20 03:06:03;;;;;;;;;;;;;;;13.76;100.00;98942.31;5075069;28;20023;-78
2022/08/20 03:08:30;;;;;;;;;;;;;;;13.19;100.00;98948.03;5074801;28;19928;-78
2022/08/20 03:10:57;;;;;;;;;;;;;;;13.28;100.00;98948.19;5057219;28;20070;-78
2022/08/20 03:13:24;;;;;;;;;;;;;;;13.43;100.00;98935.31;5075052;28;19929;-78
2022/08/20 03:15:53;;;;;;;;;;;;;;;13.73;100.00;98940.41;5074974;28;20445;-78
2022/08/20 03:18:25;;;;;;;;;;;;;;;13.93;100.00;98933.34;5074848;28;19928;-78
2022/08/20 03:20:52;;;;;;;;;;;;;;;14.13;100.00;98947.19;5074415;28;19959;-78
2022/08/20 03:23:20;;;;;;;;;;;;;;;14.15;100.00;98942.69;5074891;28;20394;-78
2022/08/20 03:25:47;;;;;;;;;;;;;;;13.96;100.00;98942.91;5074795;28;19924;-78
2022/08/20 03:28:14;;;;;;;;;;;;;;;13.86;100.00;98932.78;5074477;28;19936;-78
2022/08/20 03:30:42;;;;;;;;;;;;;;;13.89;100.00;98935.50;5073520;28;20295;-78
2022/08/20 03:33:09;;;;;;;;;;;;;;;13.86;100.00;98932.78;5056621;28;19925;-78
2022/08/20 03:35:36;;;;;;;;;;;;;;;14.00;100.00;98929.53;5073117;28;19931;-78
2022/08/20 03:38:08;;;;;;;;;;;;;;;14.07;100.00;98920.91;5074418;28;20012;-78
2022/08/20 03:40:36;;;;;;;;;;;;;;;14.29;100.00;98910.56;5073159;28;19925;-78
2022/08/20 03:43:04;;;;;;;;;;;;;;;14.40;100.00;98917.38;5073206;28;19947;-78
2022/08/20 03:45:31;;;;;;;;;;;;;;;14.73;100.00;98909.44;5074363;28;19970;-78
2022/08/20 03:48:00;;;;;;;;;;;;;;;15.05;100.00;98917.53;5074328;28;19924;-78
2022/08/20 03:50:29;;;;;;;;;;;;;;;15.15;100.00;98907.09;5073846;28;19958;-78
2022/08/20 03:52:57;;;;;;;;;;;;;;;15.26;100.00;98902.69;5056125;28;19943;-78
2022/08/20 03:55:25;;;;;;;;;;;;;;;15.26;100.00;98905.50;5056474;28;20031;-78
2022/08/20 03:57:53;;;;;;;;;;;;;;;15.48;100.00;98900.66;5073975;28;19924;-78
2022/08/20 04:00:47;;;;;;;;;;;;;;;15.30;100.00;98899.72;5073977;28;19977;-78
2022/08/20 04:03:14;;;;;;;;;;;;;;;15.26;100.00;98894.22;5072228;28;19928;-78
2022/08/20 04:05:42;;;;;;;;;;;;;;;15.01;100.00;98897.16;5072597;28;19928;-78
2022/08/20 04:08:12;;;;;;;;;;;;;;;15.05;100.00;98905.47;5055238;28;20296;-78
2022/08/20 04:10:40;;;;;;;;;;;;;;;15.04;100.00;98907.50;5072557;28;20307;-78
2022/08/20 04:13:07;;;;;;;;;;;;;;;15.11;100.00;98901.63;5073605;28;20062;-78
2022/08/20 04:15:35;;;;;;;;;;;;;;;14.86;100.00;98907.34;5073802;28;19943;-78
2022/08/20 04:18:07;;;;;;;;;;;;;;;14.91;100.00;98909.59;5073618;28;20284;-78
2022/08/20 04:20:36;;;;;;;;;;;;;;;14.86;100.00;98910.16;5072365;28;19925;-78
2022/08/20 04:23:04;;;;;;;;;;;;;;;14.87;100.00;98906.13;5073601;28;19925;-78
2022/08/20 04:25:32;;;;;;;;;;;;;;;15.05;100.00;98916.75;5073465;28;19952;-78
2022/08/20 04:28:00;;;;;;;;;;;;;;;15.11;100.00;98914.91;5073599;28;19924;-78
2022/08/20 04:30:28;;;;;;;;;;;;;;;15.08;100.00;98919.44;5073428;28;19924;-78
2022/08/20 04:32:55;;;;;;;;;;;;;;;15.16;100.00;98917.91;5073226;28;19925;-78
2022/08/20 04:35:23;;;;;;;;;;;;;;;15.19;100.00;98905.72;5073294;28;19931;-78
2022/08/20 04:38:01;;;;;;;;;;;;;;;15.06;100.00;98907.84;5073142;28;20002;-78
2022/08/20 04:43:14;;;;;;;;;;;;;;;15.19;100.00;98911.38;5073281;28;19928;-78
2022/08/20 04:45:42;;;;;;;;;;;;;;;15.19;100.00;98911.38;5072124;28;19924;-78
2022/08/20 04:48:09;;;;;;;;;;;;;;;15.19;100.00;98900.09;5071766;28;19928;-78
2022/08/20 04:50:40;;;;;;;;;;;;;;;14.97;100.00;98907.75;5072990;28;19924;-78
2022/08/20 04:53:08;;;;;;;;;;;;;;;14.86;100.00;98904.53;5072873;28;19978;-78
2022/08/20 04:55:38;;;;;;;;;;;;;;;14.87;100.00;98903.31;5073125;28;20058;-78
2022/08/20 04:58:06;;;;;;;;;;;;;;;14.78;100.00;98914.50;5073194;28;19936;-78
2022/08/20 05:00:33;;;;;;;;;;;;;;;14.86;100.00;98915.03;5072876;28;20383;-78
2022/08/20 05:03:02;;;;;;;;;;;;;;;14.77;100.00;98924.16;5072688;28;20036;-78
2022/08/20 05:05:29;;;;;;;;;;;;;;;14.87;100.00;98923.00;5073228;28;19924;-78
2022/08/20 05:07:57;;;;;;;;;;;;;;;14.94;100.00;98917.13;5073094;28;19932;-78
2022/08/20 05:10:25;;;;;;;;;;;;;;;15.13;100.00;98930.09;5071643;28;20094;-78
2022/08/20 05:12:52;;;;;;;;;;;;;;;15.25;100.00;98920.78;5072998;28;19931;-78
2022/08/20 05:15:19;;;;;;;;;;;;;;;15.10;100.00;98925.38;5070918;28;19963;-78
2022/08/20 05:17:50;;;;;;;;;;;;;;;15.30;100.00;98923.03;5071510;28;19960;-77
2022/08/20 05:20:17;;;;;;;;;;;;;;;15.42;100.00;98924.25;5071451;28;19979;-78
2022/08/20 05:22:44;;;;;;;;;;;;;;;15.60;100.00;98925.13;5071682;28;20319;-78
2022/08/20 05:25:11;;;;;;;;;;;;;;;15.55;100.00;98930.56;5071705;28;20062;-78
2022/08/20 05:27:40;;;;;;;;;;;;;;;15.57;100.00;98931.69;5072726;28;19924;-78
2022/08/20 05:30:11;;;;;;;;;;;;;;;15.71;100.00;98935.97;5072821;28;19931;-78
2022/08/20 05:32:38;;;;;;;;;;;;;;;15.92;100.00;98937.97;5071153;28;19932;-78
2022/08/20 05:35:06;;;;;;;;;;;;;;;16.06;100.00;98929.75;5072651;28;19928;-78
2022/08/20 05:37:37;;;;;;;;;;;;;;;16.05;100.00;98930.97;5071181;28;19935;-78
2022/08/20 05:40:09;;;;;;;;;;;;;;;16.16;100.00;98930.59;5072561;28;20003;-78
2022/08/20 05:42:37;;;;;;;;;;;;;;;16.32;100.00;98932.34;5072716;28;19924;-78
2022/08/20 05:45:05;;;;;;;;;;;;;;;16.52;100.00;98938.38;5071079;28;20065;-78
2022/08/20 05:47:32;;;;;;;;;;;;;;;16.73;100.00;98937.47;5072466;28;20261;-78
2022/08/20 05:50:00;;;;;;;;;;;;;;;16.84;100.00;98937.81;5071248;28;19929;-78
2022/08/20 05:52:29;;;;;;;;;;;;;;;17.09;100.00;98938.31;5071337;28;20429;-78
2022/08/20 05:54:56;;;;;;;;;;;;;;;17.13;100.00;98936.09;5071078;28;19924;-78
2022/08/20 05:57:24;;;;;;;;;;;;;;;17.22;100.00;98930.44;5072509;28;19936;-78
2022/08/20 05:59:52;;;;;;;;;;;;;;;17.45;100.00;98931.88;5072376;28;19924;-78
2022/08/20 06:05:10;;;;;;;;;;;;;;;17.65;100.00;98924.47;5029941;28;19983;-78
2022/08/20 06:07:37;;;;;;;;;;;;;;;17.21;100.00;98928.88;5030167;28;19936;-78
2022/08/20 06:10:04;;;;;;;;;;;;;;;17.16;100.00;98920.28;5030093;28;20305;-78
2022/08/20 06:12:31;;;;;;;;;;;;;;;16.98;100.00;98928.75;5030092;28;19933;-78
2022/08/20 06:14:59;;;;;;;;;;;;;;;16.98;100.00;98925.91;5029764;28;20427;-78
2022/08/20 06:17:28;;;;;;;;;;;;;;;16.90;100.00;98914.16;5029875;28;19932;-78
2022/08/20 06:19:55;;;;;;;;;;;;;;;16.95;100.00;98918.41;5029902;28;20003;-78
2022/08/20 06:22:22;;;;;;;;;;;;;;;16.89;100.00;98923.09;5030094;28;20377;-78
2022/08/20 06:24:49;;;;;;;;;;;;;;;16.96;100.00;98911.50;5029830;28;19972;-78
2022/08/20 06:27:16;;;;;;;;;;;;;;;17.12;100.00;98911.16;5029834;28;19925;-78
2022/08/20 06:29:43;;;;;;;;;;;;;;;17.09;100.00;98914.91;5029782;28;20339;-78
2022/08/20 06:32:10;;;;;;;;;;;;;;;17.06;100.00;98913.03;5033096;28;19932;-78
2022/08/20 06:34:38;;;;;;;;;;;;;;;17.00;100.00;98917.75;5033336;28;20383;-78
2022/08/20 06:37:15;;;;;;;;;;;;;;;17.06;100.00;98913.03;5033418;28;19929;-78
2022/08/20 06:39:43;;;;;;;;;;;;;;;17.03;100.00;98914.78;5033668;28;19933;-78
2022/08/20 06:42:11;;;;;;;;;;;;;;;17.01;100.00;98919.34;5053467;28;19946;-78
2022/08/20 06:44:38;;;;;;;;;;;;;;;17.17;100.00;98905.69;5074120;28;19931;-78
2022/08/20 06:47:05;;;;;;;;;;;;;;;17.42;100.00;98910.19;5074355;28;19929;-78
2022/08/20 06:49:34;;;;;;;;;;;;;;;17.74;100.00;98909.53;5075389;28;20075;-78
2022/08/20 06:52:05;;;;;;;;;;;;;;;17.68;100.00;98900.13;5075566;28;19924;-78
2022/08/20 06:54:33;;;;;;;;;;;;;;;17.44;100.00;98902.06;5075332;28;19970;-78
2022/08/20 06:57:01;;;;;;;;;;;;;;;17.60;100.00;98904.53;5073962;28;19924;-78
2022/08/20 06:59:28;;;;;;;;;;;;;;;17.85;100.00;98899.28;5074863;28;19931;-78
2022/08/20 07:01:55;;;;;;;;;;;;;;;18.15;100.00;98891.78;5057457;28;20026;-78
2022/08/20 07:04:24;;;;;;;;;;;;;;;18.48;100.00;98895.38;5074070;28;19925;-78
2022/08/20 07:06:52;;;;;;;;;;;;;;;19.08;100.00;98887.41;5075172;28;19924;-78
2022/08/20 07:09:20;;;;;;;;;;;;;;;19.88;100.00;98883.47;5074829;28;20020;-78
2022/08/20 07:11:48;;;;;;;;;;;;;;;20.38;100.00;98879.38;5075020;28;20376;-78
2022/08/20 07:14:15;;;;;;;;;;;;;;;21.73;100.00;98882.81;5074612;28;19929;-78
2022/08/20 07:16:46;;;;;;;;;;;;;;;21.84;100.00;98871.53;5057533;28;20005;-78
2022/08/20 07:19:13;;;;;;;;;;;;;;;22.51;100.00;98865.09;5074880;28;20019;-78
2022/08/20 07:21:40;;;;;;;;;;;;;;;22.43;100.00;98861.13;5056836;28;19924;-78
2022/08/20 07:24:08;;;;;;;;;;;;;;;22.46;100.00;98877.19;5073699;28;19924;-78
2022/08/20 07:26:35;;;;;;;;;;;;;;;21.64;100.00;98874.47;5074616;28;19934;-78
2022/08/20 07:29:02;;;;;;;;;;;;;;;21.12;100.00;98882.19;5073393;28;19931;-78
2022/08/20 07:34:15;;;;;;;;;;;;;;;20.36;100.00;98884.75;5074516;28;19932;-78
2022/08/20 07:36:42;;;;;;;;;;;;;;;19.84;100.00;98885.72;5073389;28;19933;-78
2022/08/20 07:39:11;;;;;;;;;;;;;;;19.98;100.00;98879.25;5073608;28;20448;-78
2022/08/20 07:41:38;;;;;;;;;;;;;;;19.48;100.00;98893.34;5074140;28;19994;-78
2022/08/20 07:44:05;;;;;;;;;;;;;;;19.26;100.00;98887.25;5074125;28;19943;-78
2022/08/20 07:46:32;;;;;;;;;;;;;;;19.19;100.00;98898.94;5073306;28;19925;-78
2022/08/20 07:48:59;;;;;;;;;;;;;;;18.77;100.00;98889.84;5074295;28;19924;-78
2022/08/20 07:51:27;;;;;;;;;;;;;;;18.60;100.00;98890.78;5074230;28;20296;-78
2022/08/20 07:53:56;;;;;;;;;;;;;;;18.58;100.00;98913.91;5072862;28;19963;-78
2022/08/20 07:56:25;;;;;;;;;;;;;;;18.54;100.00;98904.78;5072624;28;19935;-78
2022/08/20 07:58:54;;;;;;;;;;;;;;;18.46;100.00;98903.59;5072795;28;20435;-78
2022/08/20 08:01:27;;;;;;;;;;;;;;;18.63;100.00;98903.97;5074093;28;19925;-78
2022/08/20 08:03:55;;;;;;;;;;;;;;;18.29;100.00;98910.88;5072816;28;19928;-78
2022/08/20 08:06:24;;;;;;;;;;;;;;;18.01;100.00;98917.91;5073606;28;19943;-78
2022/08/20 08:08:51;;;;;;;;;;;;;;;17.99;100.00;98917.63;5073522;28;19931;-78
2022/08/20 08:11:18;;;;;;;;;;;;;;;18.12;100.00;98918.19;5072300;28;19931;-77
2022/08/20 08:13:46;;;;;;;;;;;;;;;18.12;100.00;98912.53;5072212;28;19928;-78
2022/08/20 08:16:14;;;;;;;;;;;;;;;18.36;100.00;98904.84;5072253;28;20061;-78
2022/08/20 08:18:43;;;;;;;;;;;;;;;18.81;100.00;98906.66;5073262;28;19924;-78
2022/08/20 08:21:14;;;;;;;;;;;;;;;19.98;100.00;98901.94;5073489;28;19925;-78
2022/08/20 08:23:44;;;;;;;;;;;;;;;21.28;100.00;98895.03;5073446;28;19924;-78
2022/08/20 08:26:12;;;;;;;;;;;;;;;21.51;100.00;98879.75;5071848;28;20122;-78
2022/08/20 08:28:42;;;;;;;;;;;;;;;21.12;100.00;98887.09;5072299;28;19925;-78
2022/08/20 08:31:09;;;;;;;;;;;;;;;20.18;100.00;98877.28;5072848;28;20405;-78
2022/08/20 08:33:39;;;;;;;;;;;;;;;20.19;100.00;98889.41;5088817;28;20398;-78
2022/08/20 08:36:11;;;;;;;;;;;;;;;20.10;100.00;98886.66;5072808;28;19947;-78
2022/08/20 08:38:39;;;;;;;;;;;;;;;20.05;100.00;98890.19;5070851;28;19925;-78
2022/08/20 08:41:19;;;;;;;;;;;;;;;20.19;100.00;98881.66;5072616;28;19931;-78
2022/08/20 08:43:48;;;;;;;;;;;;;;;20.25;100.00;98890.28;5072966;28;20350;-78
2022/08/20 08:46:17;;;;;;;;;;;;;;;20.10;100.00;98881.00;5066962;28;20375;-78
2022/08/20 08:48:46;;;;;;;;;;;;;;;20.10;100.00;98886.66;5046465;28;20341;-80
2022/08/20 08:51:21;;;;;;;;;;;;;;;19.93;100.00;98882.78;5071535;28;19931;-80
2022/08/20 08:53:53;;;;;;;;;;;;;;;20.03;100.00;98881.38;5071092;28;19924;-80
2022/08/20 08:56:25;;;;;;;;;;;;;;;20.06;100.00;98880.41;5070471;28;19928;-80
2022/08/20 08:58:54;;;;;;;;;;;;;;;19.91;100.00;98883.28;5072350;28;19924;-80
2022/08/20 09:01:23;;;;;;;;;;;;;;;20.15;100.00;98875.44;5070072;28;19925;-80
2022/08/20 09:03:50;;;;;;;;;;;;;;;20.02;100.00;98877.00;5071557;28;20007;-80
2022/08/20 09:06:20;;;;;;;;;;;;;;;19.95;100.00;98869.66;5070232;28;19924;-80
2022/08/20 09:08:53;;;;;;;;;;;;;;;20.08;100.00;98883.53;5102353;28;19924;-80
2022/08/20 09:11:21;;;;;;;;;;;;;;;19.91;100.00;98873.97;5069454;28;19924;-80
2022/08/20 09:13:49;;;;;;;;;;;;;;;20.15;100.00;98871.81;5069344;28;19924;-80
2022/08/20 09:16:16;;;;;;;;;;;;;;;20.20;100.00;98874.75;5070661;28;19928;-80
2022/08/20 09:18:43;;;;;;;;;;;;;;;19.91;100.00;98868.28;5070102;28;19924;-80
2022/08/20 09:21:10;;;;;;;;;;;;;;;20.25;100.00;98868.34;5071170;28;19924;-80
2022/08/20 09:23:37;;;;;;;;;;;;;;;20.20;100.00;98873.94;5054215;28;19932;-80
2022/08/20 09:26:04;;;;;;;;;;;;;;;20.17;100.00;98872.09;5072526;28;19924;-80
2022/08/20 09:28:31;;;;;;;;;;;;;;;20.25;100.00;98859.84;5071037;28;19932;-80
2022/08/20 09:30:58;;;;;;;;;;;;;;;20.33;100.00;98865.88;5071994;28;20405;-80
2022/08/20 09:33:26;;;;;;;;;;;;;;;20.52;100.00;98867.19;5071059;28;19936;-80
2022/08/20 09:35:53;;;;;;;;;;;;;;;20.58;100.00;98876.56;5070728;28;19974;-80
2022/08/20 09:38:20;;;;;;;;;;;;;;;20.88;100.00;98860.94;5072288;28;20296;-80
2022/08/20 09:40:47;;;;;;;;;;;;;;;21.46;100.00;98857.75;5072417;28;19925;-80
2022/08/20 09:43:14;;;;;;;;;;;;;;;21.69;100.00;98859.50;5071180;28;19924;-81
2022/08/20 09:45:41;;;;;;;;;;;;;;;21.26;100.00;98857.81;5072231;28;19924;-80
2022/08/20 09:48:08;;;;;;;;;;;;;;;21.53;100.00;98853.66;5072424;28;19967;-80
2022/08/20 09:50:36;;;;;;;;;;;;;;;21.92;100.00;98849.91;5087456;28;19925;-80
2022/08/20 09:53:04;;;;;;;;;;;;;;;21.86;100.00;98843.38;5103905;28;19924;-80
2022/08/20 09:55:31;;;;;;;;;;;;;;;21.88;100.00;98838.00;5072203;28;20062;-80
2022/08/20 09:57:59;;;;;;;;;;;;;;;21.99;100.00;98845.81;5072409;28;19924;-80
2022/08/20 10:00:26;;;;;;;;;;;;;;;21.86;100.00;98837.72;5104572;28;19946;-81
2022/08/20 10:02:53;;;;;;;;;;;;;;;21.94;100.00;98843.72;5070865;28;19932;-80
2022/08/20 10:05:21;;;;;;;;;;;;;;;22.09;100.00;98833.75;5072618;28;19925;-80
2022/08/20 10:07:48;;;;;;;;;;;;;;;21.83;100.00;98832.25;5107862;28;19924;-80
2022/08/20 10:10:15;;;;;;;;;;;;;;;21.59;100.00;98838.22;5075581;28;19925;-80
2022/08/20 10:12:42;;;;;;;;;;;;;;;21.54;100.00;98833.25;5074460;28;20319;-80
2022/08/20 10:15:10;;;;;;;;;;;;;;;21.82;100.00;98842.06;5075684;28;19925;-80
2022/08/20 10:17:41;;;;;;;;;;;;;;;21.73;100.00;98834.47;5074325;28;20363;-80
2022/08/20 10:20:09;;;;;;;;;;;;;;;22.04;100.00;98840.16;5058052;28;19966;-80
2022/08/20 10:22:36;;;;;;;;;;;;;;;22.21;100.00;98820.34;5074094;28;19935;-81
2022/08/20 10:25:04;;;;;;;;;;;;;;;22.16;100.00;98810.50;5108034;28;19979;-81
2022/08/20 10:27:32;;;;;;;;;;;;;;;22.16;100.00;98810.50;5075623;28;20029;-80
2022/08/20 10:29:59;;;;;;;;;;;;;;;21.93;100.00;98820.16;5107704;28;20477;-81
2022/08/20 10:32:27;;;;;;;;;;;;;;;21.65;100.00;98822.00;5075462;28;19925;-80
2022/08/20 10:34:54;;;;;;;;;;;;;;;21.43;100.00;98828.25;5075319;28;20360;-81
2022/08/20 10:37:22;;;;;;;;;;;;;;;21.55;100.00;98817.78;5075240;28;19931;-80
2022/08/20 10:39:49;;;;;;;;;;;;;;;21.79;100.00;98806.09;5074171;28;19925;-80
2022/08/20 10:42:18;;;;;;;;;;;;;;;22.06;100.00;98803.47;5057804;28;19924;-81
2022/08/20 10:44:45;;;;;;;;;;;;;;;22.22;100.00;98813.41;5074075;28;19930;-80
2022/08/20 10:47:13;;;;;;;;;;;;;;;21.95;100.00;98814.75;5057520;28;19925;-81
2022/08/20 10:49:40;;;;;;;;;;;;;;;21.90;100.00;98826.09;5075056;28;20011;-81
2022/08/20 10:52:07;;;;;;;;;;;;;;;21.89;100.00;98821.69;5075052;28;20260;-80
2022/08/20 10:54:35;;;;;;;;;;;;;;;21.89;100.00;98825.31;5075136;28;19934;-80
2022/08/20 10:57:02;;;;;;;;;;;;;;;21.67;100.00;98819.44;5074788;28;19924;-81
2022/08/20 10:59:30;;;;;;;;;;;;;;;21.94;100.00;98812.41;5090108;28;20018;-80
2022/08/20 11:01:57;;;;;;;;;;;;;;;21.78;100.00;98813.84;5074991;28;19932;-80
2022/08/20 11:04:24;;;;;;;;;;;;;;;22.00;100.00;98805.50;5075121;28;19924;-80
2022/08/20 11:06:51;;;;;;;;;;;;;;;22.46;100.00;98794.63;5073705;28;19947;-80
2022/08/20 11:09:18;;;;;;;;;;;;;;;22.24;100.00;98816.50;5074958;28;19931;-80
2022/08/20 11:11:45;;;;;;;;;;;;;;;22.37;100.00;98809.06;5074838;28;19924;-80
2022/08/20 11:14:12;;;;;;;;;;;;;;;21.70;100.00;98803.41;5073812;28;19925;-80
2022/08/20 11:16:40;;;;;;;;;;;;;;;21.93;100.00;98813.72;5073304;28;19991;-80
2022/08/20 11:19:07;;;;;;;;;;;;;;;21.63;100.00;98801.81;5074389;28;19931;-80
2022/08/20 11:21:34;;;;;;;;;;;;;;;21.57;100.00;98820.13;5074331;28;19924;-80
2022/08/20 11:24:01;;;;;;;;;;;;;;;21.69;100.00;98810.41;5073308;28;19924;-80
2022/08/20 11:26:28;;;;;;;;;;;;;;;21.57;100.00;98805.91;5089998;28;19967;-81
2022/08/20 11:28:55;;;;;;;;;;;;;;;21.63;100.00;98809.56;5074278;28;19931;-80
2022/08/20 11:31:22;;;;;;;;;;;;;;;21.62;100.00;98805.94;5074533;28;20265;-80
2022/08/20 11:33:50;;;;;;;;;;;;;;;21.79;100.00;98804.06;5106140;28;20401;-80
2022/08/20 11:36:17;;;;;;;;;;;;;;;21.85;100.00;98810.56;5074400;28;20429;-80
2022/08/20 11:38:47;;;;;;;;;;;;;;;21.97;100.00;98819.94;5074013;28;20295;-80
2022/08/20 11:41:17;;;;;;;;;;;;;;;22.00;100.00;98819.72;5073104;28;19924;-80
2022/08/20 11:43:44;;;;;;;;;;;;;;;21.93;100.00;98797.41;5074389;28;19925;-80
2022/08/20 11:46:21;;;;;;;;;;;;;;;22.29;100.00;98808.00;5074182;28;19978;-80
2022/08/20 11:48:51;;;;;;;;;;;;;;;22.03;100.00;98806.53;5074110;28;19924;-80
2022/08/20 11:51:18;;;;;;;;;;;;;;;21.44;100.00;98806.31;5072926;28;19931;-80
2022/08/20 11:53:45;;;;;;;;;;;;;;;21.72;100.00;98820.75;5056701;28;20277;-80
2022/08/20 11:56:15;;;;;;;;;;;;;;;21.64;100.00;98792.03;5089336;28;20058;-80
2022/08/20 11:58:42;;;;;;;;;;;;;;;21.89;100.00;98811.09;5072516;28;19959;-80
2022/08/20 12:01:09;;;;;;;;;;;;;;;22.31;100.00;98804.66;5073760;28;19947;-80
2022/08/20 12:03:36;;;;;;;;;;;;;;;22.16;100.00;98810.50;5072098;28;19929;-80
2022/08/20 12:06:04;;;;;;;;;;;;;;;22.39;100.00;98808.56;5073936;28;19931;-80
2022/08/20 12:08:31;;;;;;;;;;;;;;;22.21;100.00;98801.22;5073857;28;20278;-80
2022/08/20 12:11:00;;;;;;;;;;;;;;;22.46;100.00;98783.22;5072470;28;19986;-81
2022/08/20 12:13:28;;;;;;;;;;;;;;;22.59;100.00;98800.69;5073916;28;19928;-80
2022/08/20 12:15:55;;;;;;;;;;;;;;;22.83;100.00;98794.53;5073323;28;19925;-80
2022/08/20 12:18:23;;;;;;;;;;;;;;;22.57;100.00;98779.69;5073734;28;19925;-80
2022/08/20 12:20:50;;;;;;;;;;;;;;;22.96;100.00;98781.38;5072182;28;19970;-80
2022/08/20 12:23:17;;;;;;;;;;;;;;;23.19;100.00;98784.28;5073569;28;20299;-80
2022/08/20 12:25:44;;;;;;;;;;;;;;;23.68;100.00;98792.91;5055991;28;19931;-80
2022/08/20 12:28:12;;;;;;;;;;;;;;;23.10;100.00;98791.00;5072784;28;19932;-81
2022/08/20 12:30:39;;;;;;;;;;;;;;;22.96;100.00;98789.91;5073264;28;19924;-80
2022/08/20 12:33:06;;;;;;;;;;;;;;;22.74;100.00;98777.69;5073287;28;19967;-80
2022/08/20 12:35:33;;;;;;;;;;;;;;;23.11;100.00;98776.22;5073611;28;20456;-80
2022/08/20 12:38:04;;;;;;;;;;;;;;;23.06;100.00;98784.78;5073320;28;19924;-80
2022/08/20 12:40:31;;;;;;;;;;;;;;;22.66;100.00;98776.59;5072943;28;19928;-81
2022/08/20 12:42:59;;;;;;;;;;;;;;;22.66;100.00;98773.75;5055257;28;19924;-80
2022/08/20 12:45:27;;;;;;;;;;;;;;;23.24;100.00;98784.31;5071925;28;19924;-80
2022/08/20 12:47:59;;;;;;;;;;;;;;;23.13;100.00;98767.94;5073106;28;20399;-80
2022/08/20 12:50:26;;;;;;;;;;;;;;;23.42;100.00;98780.97;5105141;28;19963;-80